createdAt,value
2018-01-21T00:01:46.073Z,3.00
2018-01-21T00:04:13.546Z,3.10
2018-01-21T00:06:40.993Z,3.10
2018-01-21T00:09:08.429Z,3.10
2018-01-21T00:11:35.866Z,3.20
2018-01-21T00:14:04.058Z,3.20
2018-01-21T00:16:31.502Z,3.10
2018-01-21T00:18:58.933Z,3.10
2018-01-21T00:21:26.360Z,3.20
2018-01-21T00:23:53.794Z,3.20
2018-01-21T00:26:21.234Z,3.20
2018-01-21T00:28:48.662Z,3.30
2018-01-21T00:31:16.903Z,3.10
2018-01-21T00:33:44.436Z,3.10
2018-01-21T00:36:11.921Z,3.10
2018-01-21T00:38:39.369Z,3.10
2018-01-21T00:41:06.830Z,3.10
2018-01-21T00:43:34.254Z,3.00
2018-01-21T00:46:01.703Z,2.90
2018-01-21T00:48:29.185Z,3.00
2018-01-21T00:50:56.734Z,3.00
2018-01-21T00:53:24.205Z,3.00
2018-01-21T00:55:51.637Z,2.90
2018-01-21T00:58:19.074Z,2.90
2018-01-21T01:00:46.514Z,2.80
2018-01-21T01:03:14.037Z,2.90
2018-01-21T01:05:41.466Z,2.80
2018-01-21T01:08:08.902Z,2.70
2018-01-21T01:10:36.401Z,2.70
2018-01-21T01:13:03.845Z,2.70
2018-01-21T01:15:31.313Z,2.60
2018-01-21T01:17:58.765Z,2.60
2018-01-21T01:20:26.197Z,2.60
2018-01-21T01:22:53.634Z,2.60
2018-01-21T01:25:21.057Z,2.70
2018-01-21T01:27:48.496Z,2.70
2018-01-21T01:30:15.945Z,2.60
2018-01-21T01:32:43.397Z,2.60
2018-01-21T01:35:10.834Z,2.50
2018-01-21T01:37:38.278Z,2.40
2018-01-21T01:40:05.715Z,2.40
2018-01-21T01:42:33.914Z,2.40
2018-01-21T01:45:01.406Z,2.40
2018-01-21T01:47:28.862Z,2.40
2018-01-21T01:49:56.313Z,2.40
2018-01-21T01:52:23.962Z,2.40
2018-01-21T01:54:51.442Z,2.40
2018-01-21T01:57:18.877Z,2.30
2018-01-21T01:59:46.342Z,2.40
2018-01-21T02:02:13.887Z,2.30
2018-01-21T02:04:41.294Z,2.30
2018-01-21T02:07:08.731Z,2.30
2018-01-21T02:09:36.158Z,2.40
2018-01-21T02:12:03.607Z,2.40
2018-01-21T02:14:31.029Z,2.40
2018-01-21T02:16:59.259Z,2.30
2018-01-21T02:19:26.707Z,2.30
2018-01-21T02:21:54.143Z,2.30
2018-01-21T02:24:21.569Z,2.40
2018-01-21T02:26:49.773Z,2.40
2018-01-21T02:29:17.245Z,2.30
2018-01-21T02:31:44.686Z,2.40
2018-01-21T02:34:12.162Z,2.50
2018-01-21T02:36:39.706Z,2.60
2018-01-21T02:39:07.275Z,2.60
2018-01-21T02:41:34.742Z,2.70
2018-01-21T02:44:02.177Z,2.60
2018-01-21T02:46:29.645Z,2.60
2018-01-21T02:48:57.089Z,2.70
2018-01-21T02:51:24.562Z,2.70
2018-01-21T02:53:52.010Z,2.80
2018-01-21T02:56:19.475Z,2.80
2018-01-21T02:58:46.920Z,2.70
2018-01-21T03:01:14.337Z,2.70
2018-01-21T03:03:42.555Z,2.60
2018-01-21T03:06:09.981Z,2.50
2018-01-21T03:08:37.473Z,2.70
2018-01-21T03:11:04.933Z,2.80
2018-01-21T03:13:32.398Z,2.80
2018-01-21T03:15:59.842Z,2.80
2018-01-21T03:18:27.304Z,2.90
2018-01-21T03:20:54.771Z,2.90
2018-01-21T03:23:22.314Z,2.90
2018-01-21T03:25:49.845Z,2.90
2018-01-21T03:28:17.310Z,2.80
2018-01-21T03:30:44.717Z,2.80
2018-01-21T03:33:12.236Z,2.70
2018-01-21T03:35:39.665Z,2.60
2018-01-21T03:38:07.155Z,2.50
2018-01-21T03:40:34.615Z,2.50
2018-01-21T03:43:02.253Z,2.50
2018-01-21T03:45:29.675Z,2.60
2018-01-21T03:47:57.907Z,2.70
2018-01-21T03:50:25.338Z,2.70
2018-01-21T03:52:52.815Z,2.80
2018-01-21T03:55:20.265Z,2.80
2018-01-21T03:57:47.810Z,2.80
2018-01-21T04:00:15.217Z,2.90
2018-01-21T04:02:43.438Z,2.90
2018-01-21T04:05:10.878Z,2.80
2018-01-21T04:07:38.322Z,2.80
2018-01-21T04:10:06.627Z,2.90
2018-01-21T04:12:34.101Z,2.80
2018-01-21T04:15:01.558Z,2.90
2018-01-21T04:17:29.233Z,3.00
2018-01-21T04:19:56.687Z,3.00
2018-01-21T04:22:24.229Z,3.10
2018-01-21T04:24:51.686Z,3.10
2018-01-21T04:27:19.145Z,3.10
2018-01-21T04:29:46.581Z,3.00
2018-01-21T04:32:14.017Z,3.00
2018-01-21T04:34:41.466Z,2.90
2018-01-21T04:37:09.697Z,2.90
2018-01-21T04:39:37.133Z,2.90
2018-01-21T04:42:04.610Z,2.90
2018-01-21T04:44:32.142Z,2.90
2018-01-21T04:46:59.621Z,2.90
2018-01-21T04:49:27.177Z,2.90
2018-01-21T04:51:54.614Z,3.00
2018-01-21T04:54:22.061Z,3.00
2018-01-21T04:56:49.549Z,3.00
2018-01-21T04:59:17.001Z,3.00
2018-01-21T05:01:44.493Z,2.90
2018-01-21T05:04:12.737Z,3.00
2018-01-21T05:06:40.181Z,3.00
2018-01-21T05:09:07.642Z,3.00
2018-01-21T05:11:35.073Z,3.10
2018-01-21T05:14:02.510Z,3.10
2018-01-21T05:16:29.945Z,3.00
2018-01-21T05:18:58.194Z,2.90
2018-01-21T05:21:25.628Z,2.90
2018-01-21T05:23:53.053Z,2.80
2018-01-21T05:26:21.246Z,2.70
2018-01-21T05:28:48.812Z,2.70
2018-01-21T05:31:16.286Z,2.70
2018-01-21T05:33:43.723Z,2.70
2018-01-21T05:36:11.149Z,2.60
2018-01-21T05:38:39.362Z,2.50
2018-01-21T05:41:06.810Z,2.50
2018-01-21T05:43:34.265Z,2.40
2018-01-21T05:46:01.762Z,2.30
2018-01-21T05:48:29.189Z,2.20
2018-01-21T05:50:56.658Z,2.30
2018-01-21T05:53:24.122Z,2.30
2018-01-21T05:55:51.666Z,2.20
2018-01-21T05:58:19.099Z,2.20
2018-01-21T06:00:46.530Z,2.20
2018-01-21T06:03:14.757Z,2.00
2018-01-21T06:05:42.217Z,1.90
2018-01-21T06:08:09.665Z,1.90
2018-01-21T06:10:37.113Z,1.80
2018-01-21T06:13:04.561Z,1.90
2018-01-21T06:15:32.039Z,1.90
2018-01-21T06:17:59.493Z,2.00
2018-01-21T06:20:26.921Z,2.00
2018-01-21T06:22:54.358Z,2.10
2018-01-21T06:25:21.858Z,2.10
2018-01-21T06:27:49.286Z,2.10
2018-01-21T06:30:16.722Z,2.10
2018-01-21T06:32:45.053Z,2.00
2018-01-21T06:35:12.606Z,1.90
2018-01-21T06:37:40.062Z,1.80
2018-01-21T06:40:07.520Z,1.70
2018-01-21T06:42:34.974Z,1.60
2018-01-21T06:45:02.410Z,1.70
2018-01-21T06:47:29.883Z,1.70
2018-01-21T06:49:57.337Z,1.70
2018-01-21T06:52:24.773Z,1.80
2018-01-21T06:54:52.252Z,2.00
2018-01-21T06:57:19.684Z,2.00
2018-01-21T06:59:47.166Z,2.00
2018-01-21T07:02:14.621Z,1.90
2018-01-21T07:04:42.060Z,1.90
2018-01-21T07:07:09.533Z,1.70
2018-01-21T07:09:36.973Z,1.70
2018-01-21T07:12:04.402Z,1.60
2018-01-21T07:14:32.616Z,1.60
2018-01-21T07:17:00.048Z,1.60
2018-01-21T07:19:27.535Z,1.60
2018-01-21T07:21:54.990Z,1.60
2018-01-21T07:24:22.441Z,1.70
2018-01-21T07:26:49.869Z,1.70
2018-01-21T07:29:17.310Z,1.70
2018-01-21T07:31:45.516Z,1.70
2018-01-21T07:34:12.989Z,1.60
2018-01-21T07:36:40.430Z,1.80
2018-01-21T07:39:07.913Z,1.70
2018-01-21T07:41:35.350Z,1.80
2018-01-21T07:44:02.813Z,1.90
2018-01-21T07:46:30.355Z,2.00
2018-01-21T07:48:57.833Z,2.10
2018-01-21T07:51:25.268Z,2.20
2018-01-21T07:53:52.714Z,2.30
2018-01-21T07:56:20.141Z,2.30
2018-01-21T07:58:48.357Z,2.00
2018-01-21T08:01:15.822Z,2.00
2018-01-21T08:03:43.273Z,1.80
2018-01-21T08:06:10.745Z,1.90
2018-01-21T08:08:38.201Z,1.80
2018-01-21T08:11:05.657Z,1.90
2018-01-21T08:13:33.089Z,1.90
2018-01-21T08:16:00.577Z,1.90
2018-01-21T08:18:28.018Z,1.90
2018-01-21T08:20:55.460Z,1.90
2018-01-21T08:23:22.894Z,1.90
2018-01-21T08:25:50.348Z,2.10
2018-01-21T08:28:17.785Z,2.10
2018-01-21T08:30:46.022Z,2.10
2018-01-21T08:33:13.457Z,2.00
2018-01-21T08:35:46.569Z,2.00
2018-01-21T08:38:19.630Z,1.90
2018-01-21T08:40:52.929Z,2.00
2018-01-21T08:43:20.354Z,2.00
2018-01-21T08:45:48.569Z,1.90
2018-01-21T08:48:16.005Z,1.90
2018-01-21T08:50:43.438Z,2.00
2018-01-21T08:53:11.633Z,2.20
2018-01-21T08:55:39.113Z,2.10
2018-01-21T08:58:06.540Z,2.20
2018-01-21T09:00:33.978Z,2.40
2018-01-21T09:03:02.174Z,2.60
2018-01-21T09:05:29.745Z,2.60
2018-01-21T09:07:57.303Z,2.70
2018-01-21T09:10:24.721Z,2.80
2018-01-21T09:12:52.922Z,2.90
2018-01-21T09:15:20.359Z,2.80
2018-01-21T09:17:48.577Z,2.90
2018-01-21T09:20:16.138Z,2.90
2018-01-21T09:22:43.565Z,2.80
2018-01-21T09:25:11.054Z,2.60
2018-01-21T09:27:38.509Z,2.60
2018-01-21T09:30:05.991Z,2.60
2018-01-21T09:32:33.378Z,2.70
2018-01-21T09:35:00.940Z,2.90
2018-01-21T09:37:29.233Z,2.90
2018-01-21T09:39:56.649Z,2.80
2018-01-21T09:42:24.859Z,2.70
2018-01-21T09:44:52.341Z,2.60
2018-01-21T09:47:19.808Z,2.80
2018-01-21T09:49:47.345Z,2.70
2018-01-21T09:52:14.805Z,2.50
2018-01-21T09:54:42.233Z,2.40
2018-01-21T09:57:09.757Z,2.30
2018-01-21T09:59:37.158Z,2.20
2018-01-21T10:02:04.587Z,2.20
2018-01-21T10:04:32.023Z,2.30
2018-01-21T10:07:00.348Z,2.30
2018-01-21T10:09:27.766Z,2.30
2018-01-21T10:11:56.012Z,2.60
2018-01-21T10:14:23.569Z,2.50
2018-01-21T10:16:51.015Z,2.50
2018-01-21T10:19:18.458Z,2.50
2018-01-21T10:21:45.946Z,2.40
2018-01-21T10:24:13.500Z,2.40
2018-01-21T10:26:41.037Z,2.40
2018-01-21T10:29:08.481Z,2.50
2018-01-21T10:31:35.907Z,2.50
2018-01-21T10:34:03.408Z,2.60
2018-01-21T10:36:30.948Z,2.50
2018-01-21T10:38:58.508Z,2.40
2018-01-21T10:41:25.921Z,2.40
2018-01-21T10:43:54.146Z,2.50
2018-01-21T10:46:21.605Z,2.40
2018-01-21T10:48:49.890Z,2.60
2018-01-21T10:51:17.327Z,2.80
2018-01-21T10:53:44.750Z,2.80
2018-01-21T10:56:12.969Z,3.00
2018-01-21T10:58:40.434Z,2.90
2018-01-21T11:01:07.890Z,3.00
2018-01-21T11:03:35.334Z,3.10
2018-01-21T11:06:02.802Z,3.00
2018-01-21T11:08:30.241Z,3.00
2018-01-21T11:10:57.686Z,3.10
2018-01-21T11:13:25.130Z,3.20
2018-01-21T11:15:52.578Z,3.10
2018-01-21T11:18:20.792Z,3.10
2018-01-21T11:20:48.234Z,3.10
2018-01-21T11:23:15.673Z,3.20
2018-01-21T11:25:43.166Z,3.30
2018-01-21T11:28:10.585Z,3.30
2018-01-21T11:30:38.089Z,3.40
2018-01-21T11:33:05.518Z,3.30
2018-01-21T11:35:32.994Z,3.20
2018-01-21T11:38:00.489Z,2.90
2018-01-21T11:40:28.694Z,2.70
2018-01-21T11:42:56.160Z,2.70
2018-01-21T11:45:23.719Z,2.80
2018-01-21T11:47:51.130Z,2.80
2018-01-21T11:50:19.339Z,2.80
2018-01-21T11:52:46.818Z,2.80
2018-01-21T11:55:14.266Z,2.80
2018-01-21T11:57:41.701Z,2.80
2018-01-21T12:00:09.194Z,2.60
2018-01-21T12:02:36.649Z,2.50
2018-01-21T12:05:04.115Z,2.50
2018-01-21T12:07:32.306Z,2.50
2018-01-21T12:09:59.752Z,2.50
2018-01-21T12:12:27.186Z,2.40
2018-01-21T12:14:54.648Z,2.40
2018-01-21T12:17:22.091Z,2.40
2018-01-21T12:19:49.534Z,2.40
2018-01-21T12:22:16.969Z,2.40
2018-01-21T12:24:45.202Z,2.50
2018-01-21T12:27:12.736Z,2.50
2018-01-21T12:29:40.155Z,2.60
2018-01-21T12:32:08.465Z,2.60
2018-01-21T12:34:35.939Z,2.60
2018-01-21T12:37:03.374Z,2.60
2018-01-21T12:39:30.822Z,2.80
2018-01-21T12:41:58.257Z,2.80
2018-01-21T12:44:26.453Z,2.90
2018-01-21T12:46:54.333Z,2.90
2018-01-21T12:49:21.809Z,3.10
2018-01-21T12:51:49.346Z,3.10
2018-01-21T12:54:16.774Z,3.10
2018-01-21T12:56:44.974Z,3.30
2018-01-21T12:59:12.450Z,3.20
2018-01-21T13:01:39.904Z,3.20
2018-01-21T13:04:07.327Z,3.10
2018-01-21T13:06:35.201Z,3.10
2018-01-21T13:09:02.637Z,3.20
2018-01-21T13:11:30.120Z,3.20
2018-01-21T13:13:57.602Z,3.20
2018-01-21T13:16:25.056Z,3.30
2018-01-21T13:18:52.487Z,3.20
2018-01-21T13:21:19.937Z,3.00
2018-01-21T13:23:47.366Z,2.90
2018-01-21T13:26:15.593Z,3.10
2018-01-21T13:28:43.032Z,3.10
2018-01-21T13:31:10.453Z,3.20
2018-01-21T13:33:38.659Z,3.10
2018-01-21T13:36:06.084Z,3.00
2018-01-21T13:38:34.286Z,2.90
2018-01-21T13:41:01.778Z,2.90
2018-01-21T13:43:29.209Z,2.90
2018-01-21T13:45:56.760Z,2.80
2018-01-21T13:48:24.246Z,2.70
2018-01-21T13:50:51.879Z,2.70
2018-01-21T13:53:19.288Z,2.80
2018-01-21T13:55:46.829Z,2.70
2018-01-21T13:58:14.260Z,2.70
2018-01-21T14:00:41.714Z,2.70
2018-01-21T14:03:09.141Z,2.80
2018-01-21T14:05:36.578Z,2.80
2018-01-21T14:08:04.773Z,2.70
2018-01-21T14:10:32.262Z,2.70
2018-01-21T14:12:59.685Z,3.10
2018-01-21T14:15:27.158Z,2.80
2018-01-21T14:17:54.565Z,2.90
2018-01-21T14:20:22.070Z,3.10
2018-01-21T14:22:49.549Z,3.10
2018-01-21T14:25:16.978Z,3.00
2018-01-21T14:27:44.454Z,2.90
2018-01-21T14:30:11.918Z,2.90
2018-01-21T14:32:39.363Z,2.90
2018-01-21T14:35:06.801Z,2.80
2018-01-21T14:37:34.236Z,2.70
2018-01-21T14:40:02.540Z,2.70
2018-01-21T14:42:30.018Z,2.70
2018-01-21T14:44:57.490Z,2.60
2018-01-21T14:47:25.010Z,2.70
2018-01-21T14:49:52.466Z,2.70
2018-01-21T14:52:19.949Z,2.70
2018-01-21T14:54:47.378Z,2.60
2018-01-21T14:57:14.861Z,2.60
2018-01-21T14:59:42.305Z,2.70
2018-01-21T15:02:09.754Z,2.70
2018-01-21T15:04:37.185Z,2.70
2018-01-21T15:07:05.432Z,2.70
2018-01-21T15:09:33.085Z,2.60
2018-01-21T15:12:00.612Z,2.60
2018-01-21T15:14:28.023Z,2.60
2018-01-21T15:16:56.243Z,2.60
2018-01-21T15:19:23.678Z,2.60
2018-01-21T15:21:51.143Z,2.60
2018-01-21T15:24:18.595Z,2.70
2018-01-21T15:26:46.058Z,2.70
2018-01-21T15:29:13.482Z,2.70
2018-01-21T15:31:41.690Z,2.70
2018-01-21T15:34:09.266Z,2.70
2018-01-21T15:36:36.729Z,2.80
2018-01-21T15:39:04.166Z,0.40
2018-01-21T15:41:31.614Z,2.70
2018-01-21T15:43:59.049Z,2.50
2018-01-21T15:46:26.563Z,2.50
2018-01-21T15:48:53.982Z,2.50
2018-01-21T15:51:21.543Z,2.50
2018-01-21T15:53:48.961Z,2.50
2018-01-21T15:56:17.188Z,2.60
2018-01-21T15:58:44.613Z,2.60
2018-01-21T16:01:12.187Z,2.60
2018-01-21T16:03:39.611Z,2.60
2018-01-21T16:06:07.839Z,2.70
2018-01-21T16:08:35.270Z,2.70
2018-01-21T16:11:02.701Z,2.60
2018-01-21T16:13:30.913Z,2.40
2018-01-21T16:15:58.391Z,2.30
2018-01-21T16:18:26.019Z,2.20
2018-01-21T16:20:53.446Z,2.10
2018-01-21T16:23:21.637Z,2.00
2018-01-21T16:25:49.077Z,2.00
2018-01-21T16:28:17.382Z,2.20
2018-01-21T16:30:44.821Z,2.20
2018-01-21T16:33:12.293Z,2.30
2018-01-21T16:35:39.750Z,2.20
2018-01-21T16:38:19.286Z,2.20
2018-01-21T16:40:46.782Z,2.40
2018-01-21T16:43:14.194Z,2.40
2018-01-21T16:45:41.676Z,2.60
2018-01-21T16:48:09.103Z,2.50
2018-01-21T16:50:36.593Z,2.60
2018-01-21T16:53:04.049Z,2.60
2018-01-21T16:55:31.481Z,2.70
2018-01-21T16:57:58.909Z,2.70
2018-01-21T17:00:27.126Z,2.60
2018-01-21T17:02:54.602Z,2.60
2018-01-21T17:05:22.041Z,2.60
2018-01-21T17:07:49.511Z,2.70
2018-01-21T17:10:17.041Z,2.60
2018-01-21T17:12:44.495Z,2.70
2018-01-21T17:15:12.057Z,2.70
2018-01-21T17:17:39.480Z,2.60
2018-01-21T17:20:07.706Z,2.50
2018-01-21T17:22:35.151Z,2.50
2018-01-21T17:25:02.594Z,2.50
2018-01-21T17:27:30.073Z,2.50
2018-01-21T17:29:57.713Z,2.40
2018-01-21T17:32:25.185Z,2.50
2018-01-21T17:34:52.622Z,2.50
2018-01-21T17:37:20.071Z,2.60
2018-01-21T17:39:47.508Z,2.60
2018-01-21T17:42:15.731Z,2.70
2018-01-21T17:44:43.181Z,2.70
2018-01-21T17:47:10.640Z,2.70
2018-01-21T17:49:38.077Z,2.70
2018-01-21T17:52:05.639Z,2.70
2018-01-21T17:54:33.094Z,2.80
2018-01-21T17:57:00.507Z,2.80
2018-01-21T17:59:28.697Z,2.90
2018-01-21T18:01:56.897Z,2.80
2018-01-21T18:04:24.325Z,2.70
2018-01-21T18:06:52.545Z,2.60
2018-01-21T18:09:20.005Z,2.60
2018-01-21T18:11:47.461Z,2.60
2018-01-21T18:14:14.897Z,2.50
2018-01-21T18:16:42.477Z,2.50
2018-01-21T18:19:09.903Z,2.50
2018-01-21T18:21:37.390Z,2.40
2018-01-21T18:24:04.822Z,2.40
2018-01-21T18:26:32.301Z,2.40
2018-01-21T18:28:59.839Z,2.30
2018-01-21T18:31:27.294Z,2.30
2018-01-21T18:33:54.745Z,2.20
2018-01-21T18:36:22.169Z,2.20
2018-01-21T18:38:50.400Z,2.30
2018-01-21T18:41:17.827Z,2.20
2018-01-21T18:43:45.285Z,2.30
2018-01-21T18:46:12.864Z,2.20
2018-01-21T18:48:40.306Z,2.20
2018-01-21T18:51:07.743Z,2.20
2018-01-21T18:53:35.255Z,2.20
2018-01-21T18:56:02.806Z,2.20
2018-01-21T18:58:30.249Z,2.10
2018-01-21T19:00:57.685Z,2.10
2018-01-21T19:03:25.186Z,2.10
2018-01-21T19:05:52.609Z,2.10
2018-01-21T19:08:20.042Z,2.20
2018-01-21T19:10:47.631Z,2.10
2018-01-21T19:13:15.090Z,2.20
2018-01-21T19:15:42.508Z,2.10
2018-01-21T19:18:10.710Z,2.10
2018-01-21T19:20:38.187Z,2.10
2018-01-21T19:23:05.637Z,2.20
2018-01-21T19:25:33.089Z,2.20
2018-01-21T19:28:00.550Z,2.20
2018-01-21T19:30:28.015Z,2.20
2018-01-21T19:32:55.470Z,2.30
2018-01-21T19:35:22.909Z,2.30
2018-01-21T19:37:50.353Z,2.40
2018-01-21T19:40:23.401Z,2.40
2018-01-21T19:42:54.523Z,2.30
2018-01-21T19:45:21.964Z,2.20
2018-01-21T19:47:49.396Z,2.10
2018-01-21T19:50:16.974Z,2.10
2018-01-21T19:52:44.438Z,2.10
2018-01-21T19:55:11.891Z,2.00
2018-01-21T19:57:39.346Z,2.10
2018-01-21T20:00:06.810Z,2.10
2018-01-21T20:02:34.271Z,2.00
2018-01-21T20:05:01.718Z,2.00
2018-01-21T20:07:29.150Z,1.90
2018-01-21T20:09:56.642Z,1.80
2018-01-21T20:12:24.165Z,1.60
2018-01-21T20:14:51.641Z,1.50
2018-01-21T20:17:19.070Z,1.40
2018-01-21T20:19:46.522Z,1.30
2018-01-21T20:22:13.946Z,1.30
2018-01-21T20:24:42.145Z,1.20
2018-01-21T20:27:09.637Z,1.20
2018-01-21T20:29:37.177Z,1.20
2018-01-21T20:32:04.658Z,1.10
2018-01-21T20:34:32.175Z,1.10
2018-01-21T20:36:59.664Z,1.10
2018-01-21T20:39:27.158Z,1.20
2018-01-21T20:41:54.664Z,1.20
2018-01-21T20:44:22.254Z,1.20
2018-01-21T20:46:49.722Z,1.30
2018-01-21T20:49:17.184Z,1.20
2018-01-21T20:51:50.366Z,1.30
2018-01-21T20:54:23.696Z,1.30
2018-01-21T20:56:52.202Z,1.30
2018-01-21T20:59:19.812Z,1.20
2018-01-21T21:01:47.318Z,1.30
2018-01-21T21:04:14.753Z,1.40
2018-01-21T21:06:42.186Z,1.50
2018-01-21T21:09:10.404Z,1.50
2018-01-21T21:11:37.877Z,1.50
2018-01-21T21:14:05.319Z,1.60
2018-01-21T21:16:32.750Z,1.60
2018-01-21T21:19:00.229Z,1.60
2018-01-21T21:21:27.705Z,1.50
2018-01-21T21:23:55.157Z,1.40
2018-01-21T21:26:22.597Z,1.40
2018-01-21T21:28:50.026Z,1.30
2018-01-21T21:31:18.242Z,1.20
2018-01-21T21:33:45.810Z,1.20
2018-01-21T21:36:13.242Z,1.10
2018-01-21T21:38:40.683Z,1.10
2018-01-21T21:41:08.174Z,1.00
2018-01-21T21:43:35.604Z,1.00
2018-01-21T21:46:03.099Z,1.00
2018-01-21T21:48:30.484Z,1.00
2018-01-21T21:50:58.719Z,0.90
2018-01-21T21:53:26.260Z,0.80
2018-01-21T21:55:53.739Z,0.90
2018-01-21T21:58:21.185Z,0.90
2018-01-21T22:00:48.622Z,0.90
2018-01-21T22:03:16.049Z,0.90
2018-01-21T22:05:44.261Z,1.10
2018-01-21T22:08:11.681Z,1.00
2018-01-21T22:10:39.905Z,1.10
2018-01-21T22:13:07.462Z,1.10
2018-01-21T22:15:34.901Z,1.10
2018-01-21T22:18:02.377Z,1.10
2018-01-21T22:20:29.816Z,1.20
2018-01-21T22:22:57.282Z,1.10
2018-01-21T22:25:24.713Z,1.20
2018-01-21T22:27:52.130Z,1.20
2018-01-21T22:30:19.566Z,1.20
2018-01-21T22:32:47.010Z,1.30
2018-01-21T22:35:14.433Z,1.30
2018-01-21T22:37:41.930Z,1.40
2018-01-21T22:40:09.366Z,1.40
2018-01-21T22:42:36.845Z,1.40
2018-01-21T22:45:04.307Z,1.50
2018-01-21T22:47:31.746Z,1.40
2018-01-21T22:49:59.199Z,1.40
2018-01-21T22:52:26.642Z,1.30
2018-01-21T22:54:54.130Z,1.30
2018-01-21T22:57:21.562Z,1.30
2018-01-21T22:59:49.038Z,1.40
2018-01-21T23:02:16.476Z,1.30
2018-01-21T23:04:43.906Z,1.30
2018-01-21T23:07:12.130Z,1.30
2018-01-21T23:09:39.571Z,1.30
2018-01-21T23:12:06.998Z,1.30
2018-01-21T23:14:34.514Z,1.30
2018-01-21T23:17:01.974Z,1.30
2018-01-21T23:19:29.396Z,1.30
2018-01-21T23:21:56.873Z,1.30
2018-01-21T23:24:24.300Z,1.40
2018-01-21T23:26:51.774Z,1.40
2018-01-21T23:29:19.205Z,1.40
2018-01-21T23:31:46.642Z,1.40
2018-01-21T23:34:14.848Z,1.40
2018-01-21T23:36:42.326Z,1.30
2018-01-21T23:39:09.772Z,1.30
2018-01-21T23:41:37.225Z,1.40
2018-01-21T23:44:04.690Z,1.40
2018-01-21T23:46:32.137Z,1.30
2018-01-21T23:48:59.597Z,1.20
2018-01-21T23:51:27.054Z,1.20
2018-01-21T23:53:54.496Z,1.20
2018-01-21T23:56:21.945Z,1.20
2018-01-21T23:58:49.438Z,1.20
